sensor_id;sensor_type;location;lat;lon;timestamp;temperature;humidity
38860;DHT22;24609;48.316;16.174;2022-09-09T00:16:03;12.90;99.90
38860;DHT22;24609;48.316;16.174;2022-09-09T00:21:15;12.70;99.90
38860;DHT22;24609;48.316;16.174;2022-09-09T00:23:53;12.60;99.90
38860;DHT22;24609;48.316;16.174;2022-09-09T00:26:21;12.60;99.90
38860;DHT22;24609;48.316;16.174;2022-09-09T00:31:22;12.50;99.90
38860;DHT22;24609;48.316;16.174;2022-09-09T00:33:50;12.50;99.90
38860;DHT22;24609;48.316;16.174;2022-09-09T00:36:21;12.50;99.90
38860;DHT22;24609;48.316;16.174;2022-09-09T00:38:53;12.60;99.90
38860;DHT22;24609;48.316;16.174;2022-09-09T00:41:38;12.60;99.90
38860;DHT22;24609;48.316;16.174;2022-09-09T00:58:07;12.40;99.90
38860;DHT22;24609;48.316;16.174;2022-09-09T01:00:58;12.40;99.90
38860;DHT22;24609;48.316;16.174;2022-09-09T01:14:38;12.00;99.90
38860;DHT22;24609;48.316;16.174;2022-09-09T01:17:17;12.00;99.90
38860;DHT22;24609;48.316;16.174;2022-09-09T01:27:59;12.10;99.90
38860;DHT22;24609;48.316;16.174;2022-09-09T01:30:27;12.10;99.90
38860;DHT22;24609;48.316;16.174;2022-09-09T01:32:56;12.20;99.90
38860;DHT22;24609;48.316;16.174;2022-09-09T01:38:09;12.20;99.90
38860;DHT22;24609;48.316;16.174;2022-09-09T01:40:35;12.20;99.90
38860;DHT22;24609;48.316;16.174;2022-09-09T01:43:02;12.10;99.90
38860;DHT22;24609;48.316;16.174;2022-09-09T01:45:28;12.00;99.90
38860;DHT22;24609;48.316;16.174;2022-09-09T01:47:54;12.00;99.90
38860;DHT22;24609;48.316;16.174;2022-09-09T01:50:20;12.00;99.90
38860;DHT22;24609;48.316;16.174;2022-09-09T01:52:49;11.90;99.90
38860;DHT22;24609;48.316;16.174;2022-09-09T01:55:16;11.90;99.90
38860;DHT22;24609;48.316;16.174;2022-09-09T01:57:56;11.90;99.90
38860;DHT22;24609;48.316;16.174;2022-09-09T02:00:26;11.90;99.90
38860;DHT22;24609;48.316;16.174;2022-09-09T02:03:08;11.90;99.90
38860;DHT22;24609;48.316;16.174;2022-09-09T02:05:36;11.90;99.90
38860;DHT22;24609;48.316;16.174;2022-09-09T02:08:24;11.90;99.90
38860;DHT22;24609;48.316;16.174;2022-09-09T02:11:11;11.80;99.90
38860;DHT22;24609;48.316;16.174;2022-09-09T02:13:39;11.80;99.90
38860;DHT22;24609;48.316;16.174;2022-09-09T02:16:21;11.80;99.90
38860;DHT22;24609;48.316;16.174;2022-09-09T02:18:51;11.80;99.90
38860;DHT22;24609;48.316;16.174;2022-09-09T02:21:18;11.80;99.90
38860;DHT22;24609;48.316;16.174;2022-09-09T02:23:46;11.70;99.90
38860;DHT22;24609;48.316;16.174;2022-09-09T02:26:14;11.70;99.90
38860;DHT22;24609;48.316;16.174;2022-09-09T02:28:46;11.60;99.90
38860;DHT22;24609;48.316;16.174;2022-09-09T02:31:16;11.50;99.90
38860;DHT22;24609;48.316;16.174;2022-09-09T02:33:48;11.50;99.90
38860;DHT22;24609;48.316;16.174;2022-09-09T02:36:18;11.60;99.90
38860;DHT22;24609;48.316;16.174;2022-09-09T02:38:47;11.60;99.90
38860;DHT22;24609;48.316;16.174;2022-09-09T02:41:19;11.50;99.90
38860;DHT22;24609;48.316;16.174;2022-09-09T02:43:47;11.50;99.90
38860;DHT22;24609;48.316;16.174;2022-09-09T02:49:11;11.40;99.90
38860;DHT22;24609;48.316;16.174;2022-09-09T02:54:50;11.40;99.90
38860;DHT22;24609;48.316;16.174;2022-09-09T02:57:15;11.40;99.90
38860;DHT22;24609;48.316;16.174;2022-09-09T02:59:44;11.50;99.90
38860;DHT22;24609;48.316;16.174;2022-09-09T03:02:10;11.40;99.90
38860;DHT22;24609;48.316;16.174;2022-09-09T03:04:37;11.40;99.90
38860;DHT22;24609;48.316;16.174;2022-09-09T03:07:03;11.20;99.90
38860;DHT22;24609;48.316;16.174;2022-09-09T03:09:29;11.20;99.90
38860;DHT22;24609;48.316;16.174;2022-09-09T03:11:55;11.20;99.90
38860;DHT22;24609;48.316;16.174;2022-09-09T03:14:22;11.20;99.90
38860;DHT22;24609;48.316;16.174;2022-09-09T03:16:51;11.30;99.90
38860;DHT22;24609;48.316;16.174;2022-09-09T03:19:17;11.20;99.90
38860;DHT22;24609;48.316;16.174;2022-09-09T03:21:44;11.10;99.90
38860;DHT22;24609;48.316;16.174;2022-09-09T03:24:10;11.00;99.90
38860;DHT22;24609;48.316;16.174;2022-09-09T03:26:36;11.10;99.90
38860;DHT22;24609;48.316;16.174;2022-09-09T03:29:06;11.10;99.90
38860;DHT22;24609;48.316;16.174;2022-09-09T03:31:33;11.20;99.90
38860;DHT22;24609;48.316;16.174;2022-09-09T03:33:59;11.20;99.90
38860;DHT22;24609;48.316;16.174;2022-09-09T03:36:26;11.10;99.90
38860;DHT22;24609;48.316;16.174;2022-09-09T03:38:52;11.10;99.90
38860;DHT22;24609;48.316;16.174;2022-09-09T03:41:20;11.20;99.90
38860;DHT22;24609;48.316;16.174;2022-09-09T03:43:46;11.10;99.90
38860;DHT22;24609;48.316;16.174;2022-09-09T03:46:12;11.00;99.90
38860;DHT22;24609;48.316;16.174;2022-09-09T03:48:37;11.00;99.90
38860;DHT22;24609;48.316;16.174;2022-09-09T03:51:03;11.00;99.90
38860;DHT22;24609;48.316;16.174;2022-09-09T03:53:29;11.00;99.90
38860;DHT22;24609;48.316;16.174;2022-09-09T03:55:56;10.90;99.90
38860;DHT22;24609;48.316;16.174;2022-09-09T03:58:23;10.80;99.90
38860;DHT22;24609;48.316;16.174;2022-09-09T04:01:28;10.90;99.90
38860;DHT22;24609;48.316;16.174;2022-09-09T04:03:47;10.80;99.90
38860;DHT22;24609;48.316;16.174;2022-09-09T04:06:13;10.80;99.90
38860;DHT22;24609;48.316;16.174;2022-09-09T04:08:40;10.70;99.90
38860;DHT22;24609;48.316;16.174;2022-09-09T04:11:07;10.70;99.90
38860;DHT22;24609;48.316;16.174;2022-09-09T04:13:37;10.70;99.90
38860;DHT22;24609;48.316;16.174;2022-09-09T04:16:04;10.60;99.90
38860;DHT22;24609;48.316;16.174;2022-09-09T04:18:30;10.60;99.90
38860;DHT22;24609;48.316;16.174;2022-09-09T04:20:57;10.60;99.90
38860;DHT22;24609;48.316;16.174;2022-09-09T04:23:24;10.60;99.90
38860;DHT22;24609;48.316;16.174;2022-09-09T04:25:52;10.70;99.90
38860;DHT22;24609;48.316;16.174;2022-09-09T04:28:20;10.70;99.90
38860;DHT22;24609;48.316;16.174;2022-09-09T04:30:46;10.60;99.90
38860;DHT22;24609;48.316;16.174;2022-09-09T04:33:12;10.70;99.90
38860;DHT22;24609;48.316;16.174;2022-09-09T04:35:39;10.70;99.90
38860;DHT22;24609;48.316;16.174;2022-09-09T04:38:05;10.60;99.90
38860;DHT22;24609;48.316;16.174;2022-09-09T04:40:35;10.60;99.90
38860;DHT22;24609;48.316;16.174;2022-09-09T04:43:02;10.60;99.90
38860;DHT22;24609;48.316;16.174;2022-09-09T04:45:29;10.60;99.90
38860;DHT22;24609;48.316;16.174;2022-09-09T04:47:55;10.70;99.90
38860;DHT22;24609;48.316;16.174;2022-09-09T04:50:21;10.70;99.90
38860;DHT22;24609;48.316;16.174;2022-09-09T04:52:47;10.70;99.90
38860;DHT22;24609;48.316;16.174;2022-09-09T04:55:12;10.70;99.90
38860;DHT22;24609;48.316;16.174;2022-09-09T04:57:39;10.80;99.90
38860;DHT22;24609;48.316;16.174;2022-09-09T05:00:05;10.80;99.90
38860;DHT22;24609;48.316;16.174;2022-09-09T05:02:31;10.90;99.90
38860;DHT22;24609;48.316;16.174;2022-09-09T05:04:58;10.90;99.90
38860;DHT22;24609;48.316;16.174;2022-09-09T05:07:24;10.90;99.90
38860;DHT22;24609;48.316;16.174;2022-09-09T05:09:51;10.90;99.90
38860;DHT22;24609;48.316;16.174;2022-09-09T05:12:17;11.00;99.90
38860;DHT22;24609;48.316;16.174;2022-09-09T05:14:43;11.00;99.90
38860;DHT22;24609;48.316;16.174;2022-09-09T05:17:09;11.00;99.90
38860;DHT22;24609;48.316;16.174;2022-09-09T05:19:35;11.10;99.90
38860;DHT22;24609;48.316;16.174;2022-09-09T05:22:02;11.10;99.90
38860;DHT22;24609;48.316;16.174;2022-09-09T05:24:27;11.30;99.90
38860;DHT22;24609;48.316;16.174;2022-09-09T05:26:53;11.30;99.90
38860;DHT22;24609;48.316;16.174;2022-09-09T05:29:19;11.40;99.90
38860;DHT22;24609;48.316;16.174;2022-09-09T05:31:48;11.40;99.90
38860;DHT22;24609;48.316;16.174;2022-09-09T05:34:13;11.50;99.90
38860;DHT22;24609;48.316;16.174;2022-09-09T05:36:39;11.60;99.90
38860;DHT22;24609;48.316;16.174;2022-09-09T05:39:04;11.80;99.90
38860;DHT22;24609;48.316;16.174;2022-09-09T05:41:30;12.00;99.90
38860;DHT22;24609;48.316;16.174;2022-09-09T05:43:57;12.20;99.90
38860;DHT22;24609;48.316;16.174;2022-09-09T05:46:24;12.40;99.90
38860;DHT22;24609;48.316;16.174;2022-09-09T05:48:51;12.70;99.90
38860;DHT22;24609;48.316;16.174;2022-09-09T05:51:20;12.80;99.90
38860;DHT22;24609;48.316;16.174;2022-09-09T05:53:46;13.00;99.90
38860;DHT22;24609;48.316;16.174;2022-09-09T05:56:17;13.40;99.90
38860;DHT22;24609;48.316;16.174;2022-09-09T05:58:44;13.60;99.90
38860;DHT22;24609;48.316;16.174;2022-09-09T06:01:17;13.60;99.90
38860;DHT22;24609;48.316;16.174;2022-09-09T06:03:44;13.50;99.90
38860;DHT22;24609;48.316;16.174;2022-09-09T06:06:13;13.50;99.90
38860;DHT22;24609;48.316;16.174;2022-09-09T06:08:41;13.50;99.90
38860;DHT22;24609;48.316;16.174;2022-09-09T06:11:15;13.60;99.90
38860;DHT22;24609;48.316;16.174;2022-09-09T06:13:41;13.80;99.90
38860;DHT22;24609;48.316;16.174;2022-09-09T06:16:12;14.10;99.90
38860;DHT22;24609;48.316;16.174;2022-09-09T06:18:42;14.80;99.90
38860;DHT22;24609;48.316;16.174;2022-09-09T06:21:34;16.00;99.90
38860;DHT22;24609;48.316;16.174;2022-09-09T06:24:04;16.90;99.90
38860;DHT22;24609;48.316;16.174;2022-09-09T06:26:38;17.90;99.90
38860;DHT22;24609;48.316;16.174;2022-09-09T06:29:07;17.50;99.90
38860;DHT22;24609;48.316;16.174;2022-09-09T06:31:34;17.70;99.90
38860;DHT22;24609;48.316;16.174;2022-09-09T06:34:04;18.10;99.90
38860;DHT22;24609;48.316;16.174;2022-09-09T06:36:31;19.10;99.90
38860;DHT22;24609;48.316;16.174;2022-09-09T06:38:57;18.90;99.90
38860;DHT22;24609;48.316;16.174;2022-09-09T06:41:27;19.00;99.90
38860;DHT22;24609;48.316;16.174;2022-09-09T06:43:53;20.10;99.90
38860;DHT22;24609;48.316;16.174;2022-09-09T06:46:21;20.70;99.90
38860;DHT22;24609;48.316;16.174;2022-09-09T06:48:53;19.80;99.90
38860;DHT22;24609;48.316;16.174;2022-09-09T06:51:22;19.20;99.90
38860;DHT22;24609;48.316;16.174;2022-09-09T06:53:50;19.00;99.90
38860;DHT22;24609;48.316;16.174;2022-09-09T06:58:43;18.40;99.90
38860;DHT22;24609;48.316;16.174;2022-09-09T07:01:17;19.00;99.90
38860;DHT22;24609;48.316;16.174;2022-09-09T07:03:49;18.30;99.90
38860;DHT22;24609;48.316;16.174;2022-09-09T07:06:20;18.20;99.90
38860;DHT22;24609;48.316;16.174;2022-09-09T07:08:56;18.10;99.90
38860;DHT22;24609;48.316;16.174;2022-09-09T07:11:25;18.40;99.90
38860;DHT22;24609;48.316;16.174;2022-09-09T07:13:54;19.00;99.90
38860;DHT22;24609;48.316;16.174;2022-09-09T07:16:21;19.10;99.90
38860;DHT22;24609;48.316;16.174;2022-09-09T07:18:49;19.50;99.90
38860;DHT22;24609;48.316;16.174;2022-09-09T07:21:16;20.10;99.90
38860;DHT22;24609;48.316;16.174;2022-09-09T07:23:42;20.00;99.90
38860;DHT22;24609;48.316;16.174;2022-09-09T07:26:11;19.60;99.90
38860;DHT22;24609;48.316;16.174;2022-09-09T07:28:37;19.50;99.90
38860;DHT22;24609;48.316;16.174;2022-09-09T07:31:04;19.80;99.90
38860;DHT22;24609;48.316;16.174;2022-09-09T07:33:32;20.00;99.90
38860;DHT22;24609;48.316;16.174;2022-09-09T07:36:03;20.90;99.90
38860;DHT22;24609;48.316;16.174;2022-09-09T07:38:29;21.00;99.90
38860;DHT22;24609;48.316;16.174;2022-09-09T07:41:03;20.90;99.90
38860;DHT22;24609;48.316;16.174;2022-09-09T07:43:30;20.10;99.90
38860;DHT22;24609;48.316;16.174;2022-09-09T07:45:59;19.80;99.90
38860;DHT22;24609;48.316;16.174;2022-09-09T07:48:27;20.70;99.90
38860;DHT22;24609;48.316;16.174;2022-09-09T07:51:02;21.20;99.90
38860;DHT22;24609;48.316;16.174;2022-09-09T07:53:28;21.40;99.90
38860;DHT22;24609;48.316;16.174;2022-09-09T07:55:53;21.70;99.90
38860;DHT22;24609;48.316;16.174;2022-09-09T07:58:21;21.10;99.90
38860;DHT22;24609;48.316;16.174;2022-09-09T08:00:46;21.50;99.90
38860;DHT22;24609;48.316;16.174;2022-09-09T08:03:12;21.80;99.90
38860;DHT22;24609;48.316;16.174;2022-09-09T08:05:38;22.40;99.90
38860;DHT22;24609;48.316;16.174;2022-09-09T08:08:04;24.30;99.90
38860;DHT22;24609;48.316;16.174;2022-09-09T08:10:30;25.70;99.90
38860;DHT22;24609;48.316;16.174;2022-09-09T08:12:56;27.20;96.50
38860;DHT22;24609;48.316;16.174;2022-09-09T08:15:21;27.70;91.30
38860;DHT22;24609;48.316;16.174;2022-09-09T08:17:47;26.80;81.50
38860;DHT22;24609;48.316;16.174;2022-09-09T08:20:13;25.50;94.00
38860;DHT22;24609;48.316;16.174;2022-09-09T08:22:38;24.50;98.80
38860;DHT22;24609;48.316;16.174;2022-09-09T08:25:04;23.60;99.90
38860;DHT22;24609;48.316;16.174;2022-09-09T08:27:31;23.00;99.90
38860;DHT22;24609;48.316;16.174;2022-09-09T08:29:58;22.70;99.90
38860;DHT22;24609;48.316;16.174;2022-09-09T08:32:24;23.10;99.90
38860;DHT22;24609;48.316;16.174;2022-09-09T08:34:49;24.20;99.90
38860;DHT22;24609;48.316;16.174;2022-09-09T08:37:16;23.70;99.90
38860;DHT22;24609;48.316;16.174;2022-09-09T08:39:42;24.50;99.90
38860;DHT22;24609;48.316;16.174;2022-09-09T08:53:01;27.60;84.90
38860;DHT22;24609;48.316;16.174;2022-09-09T08:55:53;29.90;75.70
38860;DHT22;24609;48.316;16.174;2022-09-09T08:58:29;28.30;77.10
38860;DHT22;24609;48.316;16.174;2022-09-09T09:01:24;28.20;78.80
38860;DHT22;24609;48.316;16.174;2022-09-09T09:11:54;29.40;71.40
38860;DHT22;24609;48.316;16.174;2022-09-09T09:14:28;28.70;72.90
38860;DHT22;24609;48.316;16.174;2022-09-09T09:17:06;31.50;66.70
38860;DHT22;24609;48.316;16.174;2022-09-09T09:19:35;31.30;66.50
38860;DHT22;24609;48.316;16.174;2022-09-09T09:27:35;33.40;59.60
38860;DHT22;24609;48.316;16.174;2022-09-09T09:30:16;35.30;55.80
38860;DHT22;24609;48.316;16.174;2022-09-09T09:32:59;33.60;53.40
38860;DHT22;24609;48.316;16.174;2022-09-09T09:35:26;33.70;55.00
38860;DHT22;24609;48.316;16.174;2022-09-09T09:37:52;32.40;56.20
38860;DHT22;24609;48.316;16.174;2022-09-09T09:40:20;32.60;58.10
38860;DHT22;24609;48.316;16.174;2022-09-09T09:42:53;33.40;57.30
38860;DHT22;24609;48.316;16.174;2022-09-09T09:45:33;34.60;55.40
38860;DHT22;24609;48.316;16.174;2022-09-09T09:48:05;32.50;59.40
38860;DHT22;24609;48.316;16.174;2022-09-09T09:50:33;33.60;56.30
38860;DHT22;24609;48.316;16.174;2022-09-09T09:53:03;35.60;55.60
38860;DHT22;24609;48.316;16.174;2022-09-09T09:55:31;35.90;52.70
38860;DHT22;24609;48.316;16.174;2022-09-09T09:58:06;33.20;56.10
38860;DHT22;24609;48.316;16.174;2022-09-09T10:00:32;31.30;60.90
38860;DHT22;24609;48.316;16.174;2022-09-09T10:03:00;31.90;61.10
38860;DHT22;24609;48.316;16.174;2022-09-09T10:05:29;30.70;62.10
38860;DHT22;24609;48.316;16.174;2022-09-09T10:08:14;30.00;64.90
38860;DHT22;24609;48.316;16.174;2022-09-09T10:19:14;27.80;77.50
38860;DHT22;24609;48.316;16.174;2022-09-09T10:27:33;27.30;83.40
38860;DHT22;24609;48.316;16.174;2022-09-09T10:32:40;28.50;74.80
38860;DHT22;24609;48.316;16.174;2022-09-09T10:49:04;31.50;58.90
38860;DHT22;24609;48.316;16.174;2022-09-09T10:57:17;31.40;58.30
38860;DHT22;24609;48.316;16.174;2022-09-09T10:59:50;32.90;57.30
38860;DHT22;24609;48.316;16.174;2022-09-09T11:05:05;33.60;52.40
38860;DHT22;24609;48.316;16.174;2022-09-09T11:10:16;32.30;54.60
38860;DHT22;24609;48.316;16.174;2022-09-09T11:12:45;33.30;56.40
38860;DHT22;24609;48.316;16.174;2022-09-09T11:15:20;33.80;52.50
38860;DHT22;24609;48.316;16.174;2022-09-09T11:17:53;32.50;56.40
38860;DHT22;24609;48.316;16.174;2022-09-09T11:20:22;31.40;55.60
38860;DHT22;24609;48.316;16.174;2022-09-09T11:22:51;30.50;56.90
38860;DHT22;24609;48.316;16.174;2022-09-09T11:25:53;30.60;57.40
38860;DHT22;24609;48.316;16.174;2022-09-09T11:40:14;28.40;60.80
38860;DHT22;24609;48.316;16.174;2022-09-09T11:42:42;27.90;60.30
38860;DHT22;24609;48.316;16.174;2022-09-09T11:45:10;27.80;62.20
38860;DHT22;24609;48.316;16.174;2022-09-09T11:47:36;27.50;60.90
38860;DHT22;24609;48.316;16.174;2022-09-09T11:52:39;26.80;64.70
38860;DHT22;24609;48.316;16.174;2022-09-09T11:57:38;26.40;67.30
38860;DHT22;24609;48.316;16.174;2022-09-09T12:00:05;26.50;67.10
38860;DHT22;24609;48.316;16.174;2022-09-09T12:02:31;26.50;65.90
38860;DHT22;24609;48.316;16.174;2022-09-09T12:07:37;26.10;66.70
38860;DHT22;24609;48.316;16.174;2022-09-09T12:12:38;26.40;67.50
38860;DHT22;24609;48.316;16.174;2022-09-09T12:17:45;25.80;68.40
38860;DHT22;24609;48.316;16.174;2022-09-09T12:20:21;25.60;71.20
38860;DHT22;24609;48.316;16.174;2022-09-09T12:25:57;26.10;70.00
38860;DHT22;24609;48.316;16.174;2022-09-09T12:40:22;26.10;70.30
38860;DHT22;24609;48.316;16.174;2022-09-09T12:42:46;25.70;71.00
38860;DHT22;24609;48.316;16.174;2022-09-09T12:45:20;25.20;71.00
38860;DHT22;24609;48.316;16.174;2022-09-09T12:48:08;25.00;72.10
38860;DHT22;24609;48.316;16.174;2022-09-09T12:50:43;24.80;74.20
38860;DHT22;24609;48.316;16.174;2022-09-09T12:53:19;24.60;75.90
38860;DHT22;24609;48.316;16.174;2022-09-09T12:55:54;24.60;76.90
38860;DHT22;24609;48.316;16.174;2022-09-09T12:58:21;24.60;79.70
38860;DHT22;24609;48.316;16.174;2022-09-09T13:00:51;24.60;79.90
38860;DHT22;24609;48.316;16.174;2022-09-09T13:03:19;24.50;82.50
38860;DHT22;24609;48.316;16.174;2022-09-09T13:05:46;24.40;84.80
38860;DHT22;24609;48.316;16.174;2022-09-09T13:08:13;24.10;83.70
38860;DHT22;24609;48.316;16.174;2022-09-09T13:10:55;23.90;87.50
38860;DHT22;24609;48.316;16.174;2022-09-09T13:13:33;23.70;88.90
38860;DHT22;24609;48.316;16.174;2022-09-09T13:16:00;23.60;92.90
38860;DHT22;24609;48.316;16.174;2022-09-09T13:18:34;23.40;93.00
38860;DHT22;24609;48.316;16.174;2022-09-09T13:21:00;23.20;95.30
38860;DHT22;24609;48.316;16.174;2022-09-09T13:23:34;23.00;96.90
38860;DHT22;24609;48.316;16.174;2022-09-09T13:26:21;22.90;97.30
38860;DHT22;24609;48.316;16.174;2022-09-09T13:28:48;22.80;99.90
38860;DHT22;24609;48.316;16.174;2022-09-09T13:31:28;22.70;99.90
38860;DHT22;24609;48.316;16.174;2022-09-09T13:33:54;22.50;99.90
38860;DHT22;24609;48.316;16.174;2022-09-09T13:36:32;22.50;99.90
38860;DHT22;24609;48.316;16.174;2022-09-09T13:38:59;22.40;99.90
38860;DHT22;24609;48.316;16.174;2022-09-09T13:41:45;22.30;99.90
38860;DHT22;24609;48.316;16.174;2022-09-09T13:44:21;22.10;99.90
38860;DHT22;24609;48.316;16.174;2022-09-09T13:47:03;22.00;99.90
38860;DHT22;24609;48.316;16.174;2022-09-09T13:49:30;21.80;99.90
38860;DHT22;24609;48.316;16.174;2022-09-09T13:52:25;21.50;99.90
38860;DHT22;24609;48.316;16.174;2022-09-09T13:54:52;20.90;99.90
38860;DHT22;24609;48.316;16.174;2022-09-09T13:57:21;20.50;99.90
38860;DHT22;24609;48.316;16.174;2022-09-09T13:59:48;20.10;99.90
38860;DHT22;24609;48.316;16.174;2022-09-09T14:02:14;19.80;99.90
38860;DHT22;24609;48.316;16.174;2022-09-09T14:04:42;19.60;99.90
38860;DHT22;24609;48.316;16.174;2022-09-09T14:07:18;19.40;99.90
38860;DHT22;24609;48.316;16.174;2022-09-09T14:09:44;19.10;99.90
38860;DHT22;24609;48.316;16.174;2022-09-09T14:12:15;18.90;99.90
38860;DHT22;24609;48.316;16.174;2022-09-09T14:14:41;18.80;99.90
38860;DHT22;24609;48.316;16.174;2022-09-09T14:17:09;18.80;99.90
38860;DHT22;24609;48.316;16.174;2022-09-09T14:19:35;18.80;99.90
38860;DHT22;24609;48.316;16.174;2022-09-09T14:22:02;18.80;99.90
38860;DHT22;24609;48.316;16.174;2022-09-09T14:24:28;18.70;99.90
38860;DHT22;24609;48.316;16.174;2022-09-09T14:26:54;18.70;99.90
38860;DHT22;24609;48.316;16.174;2022-09-09T14:29:20;18.70;99.90
38860;DHT22;24609;48.316;16.174;2022-09-09T14:31:46;18.60;99.90
38860;DHT22;24609;48.316;16.174;2022-09-09T14:34:13;18.30;99.90
38860;DHT22;24609;48.316;16.174;2022-09-09T14:36:40;17.90;99.90
38860;DHT22;24609;48.316;16.174;2022-09-09T14:39:06;17.70;99.90
38860;DHT22;24609;48.316;16.174;2022-09-09T14:41:31;17.70;99.90
38860;DHT22;24609;48.316;16.174;2022-09-09T14:43:57;17.80;99.90
38860;DHT22;24609;48.316;16.174;2022-09-09T14:46:23;17.70;99.90
38860;DHT22;24609;48.316;16.174;2022-09-09T14:48:48;17.80;99.90
38860;DHT22;24609;48.316;16.174;2022-09-09T14:51:15;17.90;99.90
38860;DHT22;24609;48.316;16.174;2022-09-09T14:53:43;17.90;99.90
38860;DHT22;24609;48.316;16.174;2022-09-09T14:56:13;17.70;99.90
38860;DHT22;24609;48.316;16.174;2022-09-09T14:58:38;17.70;99.90
38860;DHT22;24609;48.316;16.174;2022-09-09T15:01:06;17.70;99.90
38860;DHT22;24609;48.316;16.174;2022-09-09T15:03:32;17.70;99.90
38860;DHT22;24609;48.316;16.174;2022-09-09T15:05:58;17.90;99.90
38860;DHT22;24609;48.316;16.174;2022-09-09T15:08:29;17.90;99.90
38860;DHT22;24609;48.316;16.174;2022-09-09T15:11:00;17.80;99.90
38860;DHT22;24609;48.316;16.174;2022-09-09T15:13:26;17.90;99.90
38860;DHT22;24609;48.316;16.174;2022-09-09T15:15:52;17.80;99.90
38860;DHT22;24609;48.316;16.174;2022-09-09T15:18:20;17.90;99.90
38860;DHT22;24609;48.316;16.174;2022-09-09T15:20:46;18.10;99.90
38860;DHT22;24609;48.316;16.174;2022-09-09T15:23:12;18.20;99.90
38860;DHT22;24609;48.316;16.174;2022-09-09T15:25:37;18.20;99.90
38860;DHT22;24609;48.316;16.174;2022-09-09T15:28:03;18.30;99.90
38860;DHT22;24609;48.316;16.174;2022-09-09T15:30:29;18.30;99.90
38860;DHT22;24609;48.316;16.174;2022-09-09T15:32:55;18.20;99.90
38860;DHT22;24609;48.316;16.174;2022-09-09T15:35:20;18.10;99.90
38860;DHT22;24609;48.316;16.174;2022-09-09T15:37:46;18.10;99.90
38860;DHT22;24609;48.316;16.174;2022-09-09T15:40:11;18.00;99.90
38860;DHT22;24609;48.316;16.174;2022-09-09T15:42:37;18.10;99.90
38860;DHT22;24609;48.316;16.174;2022-09-09T15:45:04;18.10;99.90
38860;DHT22;24609;48.316;16.174;2022-09-09T15:47:31;18.00;99.90
38860;DHT22;24609;48.316;16.174;2022-09-09T15:49:57;17.90;99.90
38860;DHT22;24609;48.316;16.174;2022-09-09T15:52:23;17.90;99.90
38860;DHT22;24609;48.316;16.174;2022-09-09T15:54:48;17.80;99.90
38860;DHT22;24609;48.316;16.174;2022-09-09T15:57:14;17.70;99.90
38860;DHT22;24609;48.316;16.174;2022-09-09T15:59:40;17.70;99.90
38860;DHT22;24609;48.316;16.174;2022-09-09T16:02:06;17.60;99.90
38860;DHT22;24609;48.316;16.174;2022-09-09T16:04:32;17.50;99.90
38860;DHT22;24609;48.316;16.174;2022-09-09T16:07:02;17.40;99.90
38860;DHT22;24609;48.316;16.174;2022-09-09T16:09:28;17.30;99.90
38860;DHT22;24609;48.316;16.174;2022-09-09T16:11:58;17.40;99.90
38860;DHT22;24609;48.316;16.174;2022-09-09T16:14:26;17.40;99.90
38860;DHT22;24609;48.316;16.174;2022-09-09T16:16:52;17.40;99.90
38860;DHT22;24609;48.316;16.174;2022-09-09T16:19:19;17.30;99.90
38860;DHT22;24609;48.316;16.174;2022-09-09T16:21:46;17.30;99.90
38860;DHT22;24609;48.316;16.174;2022-09-09T16:24:14;17.30;99.90
38860;DHT22;24609;48.316;16.174;2022-09-09T16:26:43;17.30;99.90
38860;DHT22;24609;48.316;16.174;2022-09-09T16:29:11;17.30;99.90
38860;DHT22;24609;48.316;16.174;2022-09-09T16:31:37;17.20;99.90
38860;DHT22;24609;48.316;16.174;2022-09-09T16:34:03;17.20;99.90
38860;DHT22;24609;48.316;16.174;2022-09-09T16:36:31;17.20;99.90
38860;DHT22;24609;48.316;16.174;2022-09-09T16:38:59;17.10;99.90
38860;DHT22;24609;48.316;16.174;2022-09-09T16:41:26;17.10;99.90
38860;DHT22;24609;48.316;16.174;2022-09-09T16:44:14;17.10;99.90
38860;DHT22;24609;48.316;16.174;2022-09-09T16:46:42;17.10;99.90
38860;DHT22;24609;48.316;16.174;2022-09-09T16:49:13;17.10;99.90
38860;DHT22;24609;48.316;16.174;2022-09-09T16:51:42;17.10;99.90
38860;DHT22;24609;48.316;16.174;2022-09-09T16:54:09;17.10;99.90
38860;DHT22;24609;48.316;16.174;2022-09-09T16:56:38;17.10;99.90
38860;DHT22;24609;48.316;16.174;2022-09-09T16:59:09;17.10;99.90
38860;DHT22;24609;48.316;16.174;2022-09-09T17:01:38;17.10;99.90
38860;DHT22;24609;48.316;16.174;2022-09-09T17:04:07;17.10;99.90
38860;DHT22;24609;48.316;16.174;2022-09-09T17:06:34;17.10;99.90
38860;DHT22;24609;48.316;16.174;2022-09-09T17:09:02;17.10;99.90
38860;DHT22;24609;48.316;16.174;2022-09-09T17:11:29;17.10;99.90
38860;DHT22;24609;48.316;16.174;2022-09-09T17:13:56;17.00;99.90
38860;DHT22;24609;48.316;16.174;2022-09-09T17:16:26;17.10;99.90
38860;DHT22;24609;48.316;16.174;2022-09-09T17:18:56;17.10;99.90
38860;DHT22;24609;48.316;16.174;2022-09-09T17:21:26;16.90;99.90
38860;DHT22;24609;48.316;16.174;2022-09-09T17:23:52;16.70;99.90
38860;DHT22;24609;48.316;16.174;2022-09-09T17:26:20;16.50;99.90
38860;DHT22;24609;48.316;16.174;2022-09-09T17:28:47;16.40;99.90
38860;DHT22;24609;48.316;16.174;2022-09-09T17:31:15;16.30;99.90
38860;DHT22;24609;48.316;16.174;2022-09-09T17:33:43;16.20;99.90
38860;DHT22;24609;48.316;16.174;2022-09-09T17:36:15;16.10;99.90
38860;DHT22;24609;48.316;16.174;2022-09-09T17:38:42;16.00;99.90
38860;DHT22;24609;48.316;16.174;2022-09-09T17:41:14;15.90;99.90
38860;DHT22;24609;48.316;16.174;2022-09-09T17:43:41;15.90;99.90
38860;DHT22;24609;48.316;16.174;2022-09-09T17:46:38;15.90;99.90
38860;DHT22;24609;48.316;16.174;2022-09-09T17:49:08;15.90;99.90
38860;DHT22;24609;48.316;16.174;2022-09-09T17:51:35;15.90;99.90
38860;DHT22;24609;48.316;16.174;2022-09-09T17:54:07;15.90;99.90
38860;DHT22;24609;48.316;16.174;2022-09-09T17:56:33;15.80;99.90
38860;DHT22;24609;48.316;16.174;2022-09-09T17:59:01;15.80;99.90
38860;DHT22;24609;48.316;16.174;2022-09-09T18:01:33;15.80;99.90
38860;DHT22;24609;48.316;16.174;2022-09-09T18:04:01;15.80;99.90
38860;DHT22;24609;48.316;16.174;2022-09-09T18:06:33;15.90;99.90
38860;DHT22;24609;48.316;16.174;2022-09-09T18:09:07;15.80;99.90
38860;DHT22;24609;48.316;16.174;2022-09-09T18:11:36;15.80;99.90
38860;DHT22;24609;48.316;16.174;2022-09-09T18:14:07;15.80;99.90
38860;DHT22;24609;48.316;16.174;2022-09-09T18:16:35;15.80;99.90
38860;DHT22;24609;48.316;16.174;2022-09-09T18:19:03;15.80;99.90